sensor_id;sensor_type;location;lat;lon;timestamp;temperature;humidity
52044;DHT22;38053;53.100;6.078;2023-10-19T00:00:34;7.80;99.90
52044;DHT22;38053;53.100;6.078;2023-10-19T00:03:02;7.80;99.90
52044;DHT22;38053;53.100;6.078;2023-10-19T00:05:32;7.80;99.90
52044;DHT22;38053;53.100;6.078;2023-10-19T00:07:59;7.80;99.90
52044;DHT22;38053;53.100;6.078;2023-10-19T00:10:27;7.90;99.90
52044;DHT22;38053;53.100;6.078;2023-10-19T00:13:01;7.80;99.90
52044;DHT22;38053;53.100;6.078;2023-10-19T00:15:37;7.80;99.90
52044;DHT22;38053;53.100;6.078;2023-10-19T00:18:07;7.80;99.90
52044;DHT22;38053;53.100;6.078;2023-10-19T00:20:51;7.80;99.90
52044;DHT22;38053;53.100;6.078;2023-10-19T00:23:19;7.80;99.90
52044;DHT22;38053;53.100;6.078;2023-10-19T00:25:50;7.80;99.90
52044;DHT22;38053;53.100;6.078;2023-10-19T00:28:20;7.70;99.90
52044;DHT22;38053;53.100;6.078;2023-10-19T00:30:48;7.70;99.90
52044;DHT22;38053;53.100;6.078;2023-10-19T00:33:19;7.70;99.90
52044;DHT22;38053;53.100;6.078;2023-10-19T00:35:48;7.70;99.90
52044;DHT22;38053;53.100;6.078;2023-10-19T00:38:26;7.70;99.90
52044;DHT22;38053;53.100;6.078;2023-10-19T00:40:55;7.70;99.90
52044;DHT22;38053;53.100;6.078;2023-10-19T00:43:44;7.70;99.90
52044;DHT22;38053;53.100;6.078;2023-10-19T00:46:17;7.70;99.90
52044;DHT22;38053;53.100;6.078;2023-10-19T00:48:56;7.70;99.90
52044;DHT22;38053;53.100;6.078;2023-10-19T00:51:41;7.70;99.90
52044;DHT22;38053;53.100;6.078;2023-10-19T00:54:32;7.70;99.90
52044;DHT22;38053;53.100;6.078;2023-10-19T00:57:02;7.70;99.90
52044;DHT22;38053;53.100;6.078;2023-10-19T00:59:37;7.70;99.90
52044;DHT22;38053;53.100;6.078;2023-10-19T01:02:13;7.70;99.90
52044;DHT22;38053;53.100;6.078;2023-10-19T01:04:54;7.70;99.90
52044;DHT22;38053;53.100;6.078;2023-10-19T01:07:30;7.70;99.90
52044;DHT22;38053;53.100;6.078;2023-10-19T01:10:02;7.70;99.90
52044;DHT22;38053;53.100;6.078;2023-10-19T01:12:31;7.70;99.90
52044;DHT22;38053;53.100;6.078;2023-10-19T01:17:50;7.70;99.90
52044;DHT22;38053;53.100;6.078;2023-10-19T01:20:21;7.80;99.90
52044;DHT22;38053;53.100;6.078;2023-10-19T01:22:57;7.80;99.90
52044;DHT22;38053;53.100;6.078;2023-10-19T01:25:50;7.80;99.90
52044;DHT22;38053;53.100;6.078;2023-10-19T01:28:17;7.70;99.90
52044;DHT22;38053;53.100;6.078;2023-10-19T01:30:46;7.70;99.90
52044;DHT22;38053;53.100;6.078;2023-10-19T01:33:17;7.80;99.90
52044;DHT22;38053;53.100;6.078;2023-10-19T01:35:49;7.80;99.90
52044;DHT22;38053;53.100;6.078;2023-10-19T01:38:33;7.80;99.90
52044;DHT22;38053;53.100;6.078;2023-10-19T01:41:00;7.80;99.90
52044;DHT22;38053;53.100;6.078;2023-10-19T01:43:26;7.80;99.90
52044;DHT22;38053;53.100;6.078;2023-10-19T01:45:59;7.80;99.90
52044;DHT22;38053;53.100;6.078;2023-10-19T01:48:40;7.80;99.90
52044;DHT22;38053;53.100;6.078;2023-10-19T01:51:11;7.80;99.90
52044;DHT22;38053;53.100;6.078;2023-10-19T01:53:38;7.80;99.90
52044;DHT22;38053;53.100;6.078;2023-10-19T01:56:09;7.80;99.90
52044;DHT22;38053;53.100;6.078;2023-10-19T01:58:40;7.80;99.90
52044;DHT22;38053;53.100;6.078;2023-10-19T02:01:07;7.90;99.90
52044;DHT22;38053;53.100;6.078;2023-10-19T02:03:42;7.90;99.90
52044;DHT22;38053;53.100;6.078;2023-10-19T02:06:13;7.90;99.90
52044;DHT22;38053;53.100;6.078;2023-10-19T02:08:46;7.90;99.90
52044;DHT22;38053;53.100;6.078;2023-10-19T02:11:25;7.90;99.90
52044;DHT22;38053;53.100;6.078;2023-10-19T02:13:55;7.90;99.90
52044;DHT22;38053;53.100;6.078;2023-10-19T02:16:25;7.90;99.90
52044;DHT22;38053;53.100;6.078;2023-10-19T02:18:51;7.90;99.90
52044;DHT22;38053;53.100;6.078;2023-10-19T02:21:18;7.90;99.90
52044;DHT22;38053;53.100;6.078;2023-10-19T02:23:57;7.90;99.90
52044;DHT22;38053;53.100;6.078;2023-10-19T02:26:23;7.90;99.90
52044;DHT22;38053;53.100;6.078;2023-10-19T02:28:53;7.90;99.90
52044;DHT22;38053;53.100;6.078;2023-10-19T02:31:20;7.90;99.90
52044;DHT22;38053;53.100;6.078;2023-10-19T02:33:49;7.90;99.90
52044;DHT22;38053;53.100;6.078;2023-10-19T02:36:24;7.90;99.90
52044;DHT22;38053;53.100;6.078;2023-10-19T02:39:01;7.90;99.90
52044;DHT22;38053;53.100;6.078;2023-10-19T02:41:34;7.90;99.90
52044;DHT22;38053;53.100;6.078;2023-10-19T02:44:04;7.90;99.90
52044;DHT22;38053;53.100;6.078;2023-10-19T02:46:30;7.90;99.90
52044;DHT22;38053;53.100;6.078;2023-10-19T02:49:03;7.90;99.90
52044;DHT22;38053;53.100;6.078;2023-10-19T02:51:49;7.90;99.90
52044;DHT22;38053;53.100;6.078;2023-10-19T02:54:18;7.90;99.90
52044;DHT22;38053;53.100;6.078;2023-10-19T02:56:54;7.90;99.90
52044;DHT22;38053;53.100;6.078;2023-10-19T02:59:23;8.00;99.90
52044;DHT22;38053;53.100;6.078;2023-10-19T03:01:54;7.90;99.90
52044;DHT22;38053;53.100;6.078;2023-10-19T03:04:26;7.90;99.90
52044;DHT22;38053;53.100;6.078;2023-10-19T03:06:54;7.90;99.90
52044;DHT22;38053;53.100;6.078;2023-10-19T03:09:22;8.00;99.90
52044;DHT22;38053;53.100;6.078;2023-10-19T03:11:55;7.90;99.90
52044;DHT22;38053;53.100;6.078;2023-10-19T03:14:25;8.00;99.90
52044;DHT22;38053;53.100;6.078;2023-10-19T03:16:52;8.00;99.90
52044;DHT22;38053;53.100;6.078;2023-10-19T03:19:20;8.00;99.90
52044;DHT22;38053;53.100;6.078;2023-10-19T03:21:46;8.00;99.90
52044;DHT22;38053;53.100;6.078;2023-10-19T03:24:15;8.00;99.90
52044;DHT22;38053;53.100;6.078;2023-10-19T03:26:59;8.00;99.90
52044;DHT22;38053;53.100;6.078;2023-10-19T03:29:25;8.00;99.90
52044;DHT22;38053;53.100;6.078;2023-10-19T03:31:56;8.00;99.90
52044;DHT22;38053;53.100;6.078;2023-10-19T03:34:22;8.00;99.90
52044;DHT22;38053;53.100;6.078;2023-10-19T03:36:49;8.00;99.90
52044;DHT22;38053;53.100;6.078;2023-10-19T03:39:16;8.00;99.90
52044;DHT22;38053;53.100;6.078;2023-10-19T03:41:44;8.10;99.90
52044;DHT22;38053;53.100;6.078;2023-10-19T03:44:10;8.00;99.90
52044;DHT22;38053;53.100;6.078;2023-10-19T03:46:50;8.00;99.90
52044;DHT22;38053;53.100;6.078;2023-10-19T03:49:22;8.10;99.90
52044;DHT22;38053;53.100;6.078;2023-10-19T03:51:50;8.10;99.90
52044;DHT22;38053;53.100;6.078;2023-10-19T03:54:45;8.10;99.90
52044;DHT22;38053;53.100;6.078;2023-10-19T03:57:17;8.10;99.90
52044;DHT22;38053;53.100;6.078;2023-10-19T03:59:49;8.10;99.90
52044;DHT22;38053;53.100;6.078;2023-10-19T04:02:37;8.20;99.90
52044;DHT22;38053;53.100;6.078;2023-10-19T04:05:04;8.20;99.90
52044;DHT22;38053;53.100;6.078;2023-10-19T04:07:30;8.20;99.90
52044;DHT22;38053;53.100;6.078;2023-10-19T04:09:59;8.20;99.90
52044;DHT22;38053;53.100;6.078;2023-10-19T04:12:35;8.20;99.90
52044;DHT22;38053;53.100;6.078;2023-10-19T04:15:03;8.20;99.90
52044;DHT22;38053;53.100;6.078;2023-10-19T04:17:35;8.20;99.90
52044;DHT22;38053;53.100;6.078;2023-10-19T04:20:02;8.20;99.90
52044;DHT22;38053;53.100;6.078;2023-10-19T04:22:38;8.20;99.90
52044;DHT22;38053;53.100;6.078;2023-10-19T04:25:05;8.20;99.90
52044;DHT22;38053;53.100;6.078;2023-10-19T04:27:32;8.30;99.90
52044;DHT22;38053;53.100;6.078;2023-10-19T04:30:02;8.30;99.90
52044;DHT22;38053;53.100;6.078;2023-10-19T04:32:28;8.30;99.90
52044;DHT22;38053;53.100;6.078;2023-10-19T04:34:53;8.30;99.90
52044;DHT22;38053;53.100;6.078;2023-10-19T04:37:19;8.30;99.90
52044;DHT22;38053;53.100;6.078;2023-10-19T04:39:45;8.30;99.90
52044;DHT22;38053;53.100;6.078;2023-10-19T04:42:12;8.30;99.90
52044;DHT22;38053;53.100;6.078;2023-10-19T04:44:39;8.30;99.90
52044;DHT22;38053;53.100;6.078;2023-10-19T04:47:05;8.30;99.90
52044;DHT22;38053;53.100;6.078;2023-10-19T04:49:31;8.30;99.90
52044;DHT22;38053;53.100;6.078;2023-10-19T04:51:56;8.40;99.90
52044;DHT22;38053;53.100;6.078;2023-10-19T04:54:22;8.40;99.90
52044;DHT22;38053;53.100;6.078;2023-10-19T04:56:48;8.40;99.90
52044;DHT22;38053;53.100;6.078;2023-10-19T04:59:14;8.40;99.90
52044;DHT22;38053;53.100;6.078;2023-10-19T05:01:39;8.40;99.90
52044;DHT22;38053;53.100;6.078;2023-10-19T05:04:06;8.40;99.90
52044;DHT22;38053;53.100;6.078;2023-10-19T05:06:32;8.40;99.90
52044;DHT22;38053;53.100;6.078;2023-10-19T05:08:58;8.40;99.90
52044;DHT22;38053;53.100;6.078;2023-10-19T05:11:23;8.40;99.90
52044;DHT22;38053;53.100;6.078;2023-10-19T05:13:49;8.40;99.90
52044;DHT22;38053;53.100;6.078;2023-10-19T05:16:15;8.40;99.90
52044;DHT22;38053;53.100;6.078;2023-10-19T05:18:40;8.40;99.90
52044;DHT22;38053;53.100;6.078;2023-10-19T05:21:06;8.50;99.90
52044;DHT22;38053;53.100;6.078;2023-10-19T05:23:32;8.50;99.90
52044;DHT22;38053;53.100;6.078;2023-10-19T05:26:03;8.50;99.90
52044;DHT22;38053;53.100;6.078;2023-10-19T05:28:29;8.50;99.90
52044;DHT22;38053;53.100;6.078;2023-10-19T05:30:55;8.50;99.90
52044;DHT22;38053;53.100;6.078;2023-10-19T05:33:21;8.50;99.90
52044;DHT22;38053;53.100;6.078;2023-10-19T05:35:49;8.50;99.90
52044;DHT22;38053;53.100;6.078;2023-10-19T05:38:15;8.50;99.90
52044;DHT22;38053;53.100;6.078;2023-10-19T05:40:42;8.50;99.90
52044;DHT22;38053;53.100;6.078;2023-10-19T05:43:11;8.50;99.90
52044;DHT22;38053;53.100;6.078;2023-10-19T05:45:38;8.50;99.90
52044;DHT22;38053;53.100;6.078;2023-10-19T05:48:04;8.50;99.90
52044;DHT22;38053;53.100;6.078;2023-10-19T05:50:33;8.50;99.90
52044;DHT22;38053;53.100;6.078;2023-10-19T05:52:59;8.50;99.90
52044;DHT22;38053;53.100;6.078;2023-10-19T05:55:25;8.50;99.90
52044;DHT22;38053;53.100;6.078;2023-10-19T05:57:51;8.50;99.90
52044;DHT22;38053;53.100;6.078;2023-10-19T06:00:17;8.50;99.90
52044;DHT22;38053;53.100;6.078;2023-10-19T06:02:48;8.60;99.90
52044;DHT22;38053;53.100;6.078;2023-10-19T06:05:18;8.60;99.90
52044;DHT22;38053;53.100;6.078;2023-10-19T06:07:46;8.60;99.90
52044;DHT22;38053;53.100;6.078;2023-10-19T06:10:17;8.60;99.90
52044;DHT22;38053;53.100;6.078;2023-10-19T06:12:43;8.60;99.90
52044;DHT22;38053;53.100;6.078;2023-10-19T06:15:10;8.60;99.90
52044;DHT22;38053;53.100;6.078;2023-10-19T06:17:43;8.60;99.90
52044;DHT22;38053;53.100;6.078;2023-10-19T06:20:12;8.60;99.90
52044;DHT22;38053;53.100;6.078;2023-10-19T06:22:56;8.60;99.90
52044;DHT22;38053;53.100;6.078;2023-10-19T06:25:26;8.60;99.90
52044;DHT22;38053;53.100;6.078;2023-10-19T06:27:52;8.60;99.90
52044;DHT22;38053;53.100;6.078;2023-10-19T06:30:19;8.60;99.90
52044;DHT22;38053;53.100;6.078;2023-10-19T06:32:52;8.60;99.90
52044;DHT22;38053;53.100;6.078;2023-10-19T06:35:18;8.70;99.90
52044;DHT22;38053;53.100;6.078;2023-10-19T06:37:45;8.60;99.90
52044;DHT22;38053;53.100;6.078;2023-10-19T06:40:12;8.70;99.90
52044;DHT22;38053;53.100;6.078;2023-10-19T06:42:44;8.70;99.90
52044;DHT22;38053;53.100;6.078;2023-10-19T06:45:11;8.70;99.90
52044;DHT22;38053;53.100;6.078;2023-10-19T06:47:45;8.70;99.90
52044;DHT22;38053;53.100;6.078;2023-10-19T06:50:11;8.70;99.90
52044;DHT22;38053;53.100;6.078;2023-10-19T06:52:38;8.70;99.90
52044;DHT22;38053;53.100;6.078;2023-10-19T06:55:06;8.70;99.90
52044;DHT22;38053;53.100;6.078;2023-10-19T06:57:42;8.70;99.90
52044;DHT22;38053;53.100;6.078;2023-10-19T07:00:12;8.80;99.90
52044;DHT22;38053;53.100;6.078;2023-10-19T07:02:44;8.80;99.90
52044;DHT22;38053;53.100;6.078;2023-10-19T07:05:14;8.80;99.90
52044;DHT22;38053;53.100;6.078;2023-10-19T07:07:44;8.80;99.90
52044;DHT22;38053;53.100;6.078;2023-10-19T07:10:14;8.80;99.90
52044;DHT22;38053;53.100;6.078;2023-10-19T07:12:45;8.80;99.90
52044;DHT22;38053;53.100;6.078;2023-10-19T07:15:12;8.80;99.90
52044;DHT22;38053;53.100;6.078;2023-10-19T07:17:48;8.80;99.90
52044;DHT22;38053;53.100;6.078;2023-10-19T07:20:16;8.80;99.90
52044;DHT22;38053;53.100;6.078;2023-10-19T07:22:58;8.80;99.90
52044;DHT22;38053;53.100;6.078;2023-10-19T07:25:47;8.90;99.90
52044;DHT22;38053;53.100;6.078;2023-10-19T07:28:14;8.90;99.90
52044;DHT22;38053;53.100;6.078;2023-10-19T07:30:42;8.90;99.90
52044;DHT22;38053;53.100;6.078;2023-10-19T07:33:09;8.90;99.90
52044;DHT22;38053;53.100;6.078;2023-10-19T07:35:38;8.90;99.90
52044;DHT22;38053;53.100;6.078;2023-10-19T07:38:05;8.90;99.90
52044;DHT22;38053;53.100;6.078;2023-10-19T07:40:36;8.90;99.90
52044;DHT22;38053;53.100;6.078;2023-10-19T07:43:02;8.90;99.90
52044;DHT22;38053;53.100;6.078;2023-10-19T07:45:29;9.00;99.90
52044;DHT22;38053;53.100;6.078;2023-10-19T07:47:57;9.00;99.90
52044;DHT22;38053;53.100;6.078;2023-10-19T07:50:26;9.00;99.90
52044;DHT22;38053;53.100;6.078;2023-10-19T07:52:52;9.00;99.90
52044;DHT22;38053;53.100;6.078;2023-10-19T07:55:21;9.00;99.90
52044;DHT22;38053;53.100;6.078;2023-10-19T07:57:50;9.00;99.90
52044;DHT22;38053;53.100;6.078;2023-10-19T08:00:18;9.00;99.90
52044;DHT22;38053;53.100;6.078;2023-10-19T08:02:44;9.10;99.90
52044;DHT22;38053;53.100;6.078;2023-10-19T08:05:13;9.10;99.90
52044;DHT22;38053;53.100;6.078;2023-10-19T08:07:40;9.10;99.90
52044;DHT22;38053;53.100;6.078;2023-10-19T08:10:09;9.10;99.90
52044;DHT22;38053;53.100;6.078;2023-10-19T08:12:39;9.10;99.90
52044;DHT22;38053;53.100;6.078;2023-10-19T08:15:09;9.10;99.90
52044;DHT22;38053;53.100;6.078;2023-10-19T08:17:40;9.20;99.90
52044;DHT22;38053;53.100;6.078;2023-10-19T08:20:07;9.20;99.90
52044;DHT22;38053;53.100;6.078;2023-10-19T08:22:44;9.30;99.90
52044;DHT22;38053;53.100;6.078;2023-10-19T08:25:13;9.20;99.90
52044;DHT22;38053;53.100;6.078;2023-10-19T08:27:46;9.30;99.90
52044;DHT22;38053;53.100;6.078;2023-10-19T08:30:19;9.30;99.90
52044;DHT22;38053;53.100;6.078;2023-10-19T08:32:46;9.40;99.90
52044;DHT22;38053;53.100;6.078;2023-10-19T08:35:14;9.40;99.90
52044;DHT22;38053;53.100;6.078;2023-10-19T08:37:43;9.40;99.90
52044;DHT22;38053;53.100;6.078;2023-10-19T08:40:11;9.40;99.90
52044;DHT22;38053;53.100;6.078;2023-10-19T08:42:41;9.40;99.90
52044;DHT22;38053;53.100;6.078;2023-10-19T08:45:08;9.50;99.90
52044;DHT22;38053;53.100;6.078;2023-10-19T08:47:36;9.50;99.90
52044;DHT22;38053;53.100;6.078;2023-10-19T08:50:03;9.50;99.90
52044;DHT22;38053;53.100;6.078;2023-10-19T08:52:30;9.50;99.90
52044;DHT22;38053;53.100;6.078;2023-10-19T08:54:58;9.50;99.90
52044;DHT22;38053;53.100;6.078;2023-10-19T08:57:24;9.50;99.90
52044;DHT22;38053;53.100;6.078;2023-10-19T08:59:50;9.60;99.90
52044;DHT22;38053;53.100;6.078;2023-10-19T09:02:16;9.60;99.90
52044;DHT22;38053;53.100;6.078;2023-10-19T09:04:47;9.60;99.90
52044;DHT22;38053;53.100;6.078;2023-10-19T09:07:13;9.60;99.90
52044;DHT22;38053;53.100;6.078;2023-10-19T09:09:39;9.60;99.90
52044;DHT22;38053;53.100;6.078;2023-10-19T09:12:09;9.70;99.90
52044;DHT22;38053;53.100;6.078;2023-10-19T09:14:36;9.70;99.90
52044;DHT22;38053;53.100;6.078;2023-10-19T09:17:05;9.70;99.90
52044;DHT22;38053;53.100;6.078;2023-10-19T09:19:47;9.70;99.90
52044;DHT22;38053;53.100;6.078;2023-10-19T09:22:13;9.70;99.90
52044;DHT22;38053;53.100;6.078;2023-10-19T09:24:48;9.70;99.90
52044;DHT22;38053;53.100;6.078;2023-10-19T09:27:17;9.70;99.90
52044;DHT22;38053;53.100;6.078;2023-10-19T09:29:43;9.70;99.90
52044;DHT22;38053;53.100;6.078;2023-10-19T09:32:09;9.70;99.90
52044;DHT22;38053;53.100;6.078;2023-10-19T09:34:37;9.70;99.90
52044;DHT22;38053;53.100;6.078;2023-10-19T09:37:04;9.70;99.90
52044;DHT22;38053;53.100;6.078;2023-10-19T09:39:30;9.80;99.90
52044;DHT22;38053;53.100;6.078;2023-10-19T09:42:06;9.80;99.90
52044;DHT22;38053;53.100;6.078;2023-10-19T09:44:54;9.80;99.90
52044;DHT22;38053;53.100;6.078;2023-10-19T09:47:29;9.80;99.90
52044;DHT22;38053;53.100;6.078;2023-10-19T09:49:57;9.80;99.90
52044;DHT22;38053;53.100;6.078;2023-10-19T09:52:23;9.90;99.90
52044;DHT22;38053;53.100;6.078;2023-10-19T09:54:54;9.90;99.90
52044;DHT22;38053;53.100;6.078;2023-10-19T09:57:36;9.90;99.90
52044;DHT22;38053;53.100;6.078;2023-10-19T10:00:05;10.00;99.90
52044;DHT22;38053;53.100;6.078;2023-10-19T10:02:50;10.00;99.90
52044;DHT22;38053;53.100;6.078;2023-10-19T10:10:48;10.10;99.90
52044;DHT22;38053;53.100;6.078;2023-10-19T10:15:58;10.10;99.90
52044;DHT22;38053;53.100;6.078;2023-10-19T10:18:27;10.20;99.90
52044;DHT22;38053;53.100;6.078;2023-10-19T10:21:15;10.20;99.90
52044;DHT22;38053;53.100;6.078;2023-10-19T10:23:46;10.20;99.90
52044;DHT22;38053;53.100;6.078;2023-10-19T10:26:17;10.30;99.90
52044;DHT22;38053;53.100;6.078;2023-10-19T10:29:21;10.30;99.90
52044;DHT22;38053;53.100;6.078;2023-10-19T10:31:47;10.30;99.90
52044;DHT22;38053;53.100;6.078;2023-10-19T10:37:08;10.40;99.90
52044;DHT22;38053;53.100;6.078;2023-10-19T10:39:39;10.40;99.90
52044;DHT22;38053;53.100;6.078;2023-10-19T10:42:07;10.40;99.90
52044;DHT22;38053;53.100;6.078;2023-10-19T10:44:41;10.50;99.90
52044;DHT22;38053;53.100;6.078;2023-10-19T10:47:09;10.60;99.90
52044;DHT22;38053;53.100;6.078;2023-10-19T10:49:59;10.60;99.90
52044;DHT22;38053;53.100;6.078;2023-10-19T10:52:35;10.70;99.90
52044;DHT22;38053;53.100;6.078;2023-10-19T10:55:13;10.70;99.90
52044;DHT22;38053;53.100;6.078;2023-10-19T10:57:43;10.70;99.90
52044;DHT22;38053;53.100;6.078;2023-10-19T11:00:13;10.70;99.90
52044;DHT22;38053;53.100;6.078;2023-10-19T11:02:45;10.70;99.90
52044;DHT22;38053;53.100;6.078;2023-10-19T11:05:13;10.70;99.90
52044;DHT22;38053;53.100;6.078;2023-10-19T11:10:28;10.80;99.90
52044;DHT22;38053;53.100;6.078;2023-10-19T11:13:08;10.80;99.90
52044;DHT22;38053;53.100;6.078;2023-10-19T11:15:38;10.80;99.90
52044;DHT22;38053;53.100;6.078;2023-10-19T11:18:05;10.80;99.90
52044;DHT22;38053;53.100;6.078;2023-10-19T11:20:33;10.80;99.90
52044;DHT22;38053;53.100;6.078;2023-10-19T11:22:59;10.90;99.90
52044;DHT22;38053;53.100;6.078;2023-10-19T11:25:32;10.80;99.90
52044;DHT22;38053;53.100;6.078;2023-10-19T11:27:59;10.90;99.90
52044;DHT22;38053;53.100;6.078;2023-10-19T11:30:30;10.90;99.90
52044;DHT22;38053;53.100;6.078;2023-10-19T11:33:02;10.90;99.90
52044;DHT22;38053;53.100;6.078;2023-10-19T11:35:29;10.90;99.90
52044;DHT22;38053;53.100;6.078;2023-10-19T11:37:59;10.90;99.90
52044;DHT22;38053;53.100;6.078;2023-10-19T11:40:28;10.90;99.90
52044;DHT22;38053;53.100;6.078;2023-10-19T11:42:54;11.00;99.90
52044;DHT22;38053;53.100;6.078;2023-10-19T11:45:24;11.00;99.90
52044;DHT22;38053;53.100;6.078;2023-10-19T11:47:50;11.00;99.90
52044;DHT22;38053;53.100;6.078;2023-10-19T11:50:18;11.10;99.90
52044;DHT22;38053;53.100;6.078;2023-10-19T11:52:45;11.10;99.90
52044;DHT22;38053;53.100;6.078;2023-10-19T11:55:15;11.20;99.90
52044;DHT22;38053;53.100;6.078;2023-10-19T11:57:44;11.20;99.90
52044;DHT22;38053;53.100;6.078;2023-10-19T12:00:11;11.30;99.90
52044;DHT22;38053;53.100;6.078;2023-10-19T12:02:40;11.30;99.90
52044;DHT22;38053;53.100;6.078;2023-10-19T12:05:09;11.30;99.90
52044;DHT22;38053;53.100;6.078;2023-10-19T12:07:42;11.30;99.90
52044;DHT22;38053;53.100;6.078;2023-10-19T12:10:10;11.20;99.90
52044;DHT22;38053;53.100;6.078;2023-10-19T12:12:37;11.20;99.90
52044;DHT22;38053;53.100;6.078;2023-10-19T12:15:04;11.30;99.90
52044;DHT22;38053;53.100;6.078;2023-10-19T12:17:34;11.20;99.90
52044;DHT22;38053;53.100;6.078;2023-10-19T12:20:00;11.20;99.90
52044;DHT22;38053;53.100;6.078;2023-10-19T12:22:26;11.30;99.90
52044;DHT22;38053;53.100;6.078;2023-10-19T12:24:58;11.20;99.90
52044;DHT22;38053;53.100;6.078;2023-10-19T12:27:25;11.20;99.90
52044;DHT22;38053;53.100;6.078;2023-10-19T12:29:51;11.20;99.90
52044;DHT22;38053;53.100;6.078;2023-10-19T12:32:18;11.10;99.90
52044;DHT22;38053;53.100;6.078;2023-10-19T12:34:44;11.10;99.90
52044;DHT22;38053;53.100;6.078;2023-10-19T12:37:10;11.10;99.90
52044;DHT22;38053;53.100;6.078;2023-10-19T12:39:38;11.10;99.90
52044;DHT22;38053;53.100;6.078;2023-10-19T12:42:13;11.10;99.90
52044;DHT22;38053;53.100;6.078;2023-10-19T12:44:39;11.10;99.90
52044;DHT22;38053;53.100;6.078;2023-10-19T12:47:07;11.00;99.90
52044;DHT22;38053;53.100;6.078;2023-10-19T12:49:39;11.00;99.90
52044;DHT22;38053;53.100;6.078;2023-10-19T12:52:09;11.00;99.90
52044;DHT22;38053;53.100;6.078;2023-10-19T12:54:38;10.90;99.90
52044;DHT22;38053;53.100;6.078;2023-10-19T12:57:07;10.90;99.90
52044;DHT22;38053;53.100;6.078;2023-10-19T12:59:35;10.90;99.90
52044;DHT22;38053;53.100;6.078;2023-10-19T13:02:21;10.90;99.90
52044;DHT22;38053;53.100;6.078;2023-10-19T13:04:47;10.80;99.90
52044;DHT22;38053;53.100;6.078;2023-10-19T13:07:12;10.80;99.90
52044;DHT22;38053;53.100;6.078;2023-10-19T13:09:45;10.80;99.90
52044;DHT22;38053;53.100;6.078;2023-10-19T13:12:11;10.70;99.90
52044;DHT22;38053;53.100;6.078;2023-10-19T13:14:38;10.70;99.90
52044;DHT22;38053;53.100;6.078;2023-10-19T13:17:05;10.70;99.90
52044;DHT22;38053;53.100;6.078;2023-10-19T13:19:30;10.70;99.90
52044;DHT22;38053;53.100;6.078;2023-10-19T13:21:57;10.60;99.90
52044;DHT22;38053;53.100;6.078;2023-10-19T13:24:31;10.60;99.90
52044;DHT22;38053;53.100;6.078;2023-10-19T13:27:00;10.60;99.90
52044;DHT22;38053;53.100;6.078;2023-10-19T13:29:28;10.60;99.90
52044;DHT22;38053;53.100;6.078;2023-10-19T13:31:56;10.60;99.90
52044;DHT22;38053;53.100;6.078;2023-10-19T13:34:21;10.50;99.90
52044;DHT22;38053;53.100;6.078;2023-10-19T13:36:47;10.50;99.90
52044;DHT22;38053;53.100;6.078;2023-10-19T13:39:13;10.50;99.90
52044;DHT22;38053;53.100;6.078;2023-10-19T13:41:42;10.50;99.90
52044;DHT22;38053;53.100;6.078;2023-10-19T13:44:09;10.40;99.90
52044;DHT22;38053;53.100;6.078;2023-10-19T13:46:37;10.40;99.90
52044;DHT22;38053;53.100;6.078;2023-10-19T13:49:03;10.50;99.90
52044;DHT22;38053;53.100;6.078;2023-10-19T13:51:31;10.40;99.90
52044;DHT22;38053;53.100;6.078;2023-10-19T13:53:57;10.40;99.90
52044;DHT22;38053;53.100;6.078;2023-10-19T13:56:23;10.40;99.90
52044;DHT22;38053;53.100;6.078;2023-10-19T13:58:48;10.40;99.90
52044;DHT22;38053;53.100;6.078;2023-10-19T14:01:15;10.40;99.90
52044;DHT22;38053;53.100;6.078;2023-10-19T14:03:43;10.40;99.90
52044;DHT22;38053;53.100;6.078;2023-10-19T14:06:13;10.40;99.90
52044;DHT22;38053;53.100;6.078;2023-10-19T14:08:42;10.40;99.90
52044;DHT22;38053;53.100;6.078;2023-10-19T14:11:09;10.30;99.90
52044;DHT22;38053;53.100;6.078;2023-10-19T14:13:35;10.30;99.90
52044;DHT22;38053;53.100;6.078;2023-10-19T14:16:07;10.30;99.90
52044;DHT22;38053;53.100;6.078;2023-10-19T14:18:33;10.30;99.90
52044;DHT22;38053;53.100;6.078;2023-10-19T14:20:59;10.30;99.90
52044;DHT22;38053;53.100;6.078;2023-10-19T14:23:26;10.30;99.90
52044;DHT22;38053;53.100;6.078;2023-10-19T14:25:52;10.30;99.90
52044;DHT22;38053;53.100;6.078;2023-10-19T14:28:20;10.30;99.90
52044;DHT22;38053;53.100;6.078;2023-10-19T14:30:45;10.30;99.90
52044;DHT22;38053;53.100;6.078;2023-10-19T14:33:11;10.20;99.90
52044;DHT22;38053;53.100;6.078;2023-10-19T14:35:38;10.30;99.90
52044;DHT22;38053;53.100;6.078;2023-10-19T14:38:10;10.20;99.90
52044;DHT22;38053;53.100;6.078;2023-10-19T14:40:38;10.20;99.90
52044;DHT22;38053;53.100;6.078;2023-10-19T14:43:09;10.20;99.90
52044;DHT22;38053;53.100;6.078;2023-10-19T14:45:34;10.10;99.90
52044;DHT22;38053;53.100;6.078;2023-10-19T14:48:00;10.10;99.90
52044;DHT22;38053;53.100;6.078;2023-10-19T14:50:30;10.20;99.90
52044;DHT22;38053;53.100;6.078;2023-10-19T14:52:56;10.10;99.90
52044;DHT22;38053;53.100;6.078;2023-10-19T14:55:22;10.10;99.90
52044;DHT22;38053;53.100;6.078;2023-10-19T14:57:55;10.10;99.90
52044;DHT22;38053;53.100;6.078;2023-10-19T15:00:23;10.10;99.90
52044;DHT22;38053;53.100;6.078;2023-10-19T15:02:56;10.10;99.90
52044;DHT22;38053;53.100;6.078;2023-10-19T15:05:23;10.00;99.90
52044;DHT22;38053;53.100;6.078;2023-10-19T15:07:51;10.00;99.90
52044;DHT22;38053;53.100;6.078;2023-10-19T15:10:25;10.00;99.90
52044;DHT22;38053;53.100;6.078;2023-10-19T15:12:51;10.00;99.90
52044;DHT22;38053;53.100;6.078;2023-10-19T15:15:17;10.00;99.90
52044;DHT22;38053;53.100;6.078;2023-10-19T15:17:44;9.90;99.90
52044;DHT22;38053;53.100;6.078;2023-10-19T15:20:11;10.00;99.90
52044;DHT22;38053;53.100;6.078;2023-10-19T15:22:47;9.90;99.90
52044;DHT22;38053;53.100;6.078;2023-10-19T15:25:13;9.90;99.90
52044;DHT22;38053;53.100;6.078;2023-10-19T15:27:43;9.90;99.90
52044;DHT22;38053;53.100;6.078;2023-10-19T15:30:10;9.90;99.90
52044;DHT22;38053;53.100;6.078;2023-10-19T15:32:41;9.90;99.90
52044;DHT22;38053;53.100;6.078;2023-10-19T15:35:11;9.80;99.90
52044;DHT22;38053;53.100;6.078;2023-10-19T15:37:39;9.90;99.90
52044;DHT22;38053;53.100;6.078;2023-10-19T15:40:06;9.90;99.90
52044;DHT22;38053;53.100;6.078;2023-10-19T15:42:31;9.80;99.90
52044;DHT22;38053;53.100;6.078;2023-10-19T15:45:00;9.80;99.90
52044;DHT22;38053;53.100;6.078;2023-10-19T15:47:26;9.80;99.90
52044;DHT22;38053;53.100;6.078;2023-10-19T15:49:53;9.80;99.90
52044;DHT22;38053;53.100;6.078;2023-10-19T15:52:32;9.80;99.90
52044;DHT22;38053;53.100;6.078;2023-10-19T15:54:58;9.80;99.90
52044;DHT22;38053;53.100;6.078;2023-10-19T15:57:24;9.80;99.90
52044;DHT22;38053;53.100;6.078;2023-10-19T15:59:53;9.80;99.90
52044;DHT22;38053;53.100;6.078;2023-10-19T16:02:20;9.80;99.90
52044;DHT22;38053;53.100;6.078;2023-10-19T16:04:45;9.80;99.90
52044;DHT22;38053;53.100;6.078;2023-10-19T16:07:13;9.70;99.90
52044;DHT22;38053;53.100;6.078;2023-10-19T16:09:41;9.80;99.90
52044;DHT22;38053;53.100;6.078;2023-10-19T16:12:08;9.70;99.90